createdAt,value
2018-03-25T00:01:26.630Z,67.50
2018-03-25T00:03:55.793Z,68.20
2018-03-25T00:06:23.405Z,68.10
2018-03-25T00:08:51.630Z,68.00
2018-03-25T00:11:19.289Z,68.00
2018-03-25T00:13:46.951Z,67.90
2018-03-25T00:16:14.609Z,68.00
2018-03-25T00:18:42.375Z,68.40
2018-03-25T00:21:09.989Z,67.90
2018-03-25T00:23:37.814Z,68.90
2018-03-25T00:26:05.425Z,69.40
2018-03-25T00:28:33.081Z,70.10
2018-03-25T00:31:00.702Z,70.20
2018-03-25T00:33:28.352Z,69.70
2018-03-25T00:35:56.099Z,71.10
2018-03-25T00:38:23.758Z,69.10
2018-03-25T00:40:51.404Z,69.80
2018-03-25T00:43:19.060Z,69.60
2018-03-25T00:45:46.712Z,69.80
2018-03-25T00:48:14.324Z,70.30
2018-03-25T00:50:41.970Z,70.30
2018-03-25T00:53:09.581Z,70.50
2018-03-25T00:55:37.238Z,70.70
2018-03-25T00:58:04.899Z,70.40
2018-03-25T01:00:32.520Z,70.70
2018-03-25T01:03:00.936Z,72.40
2018-03-25T01:05:28.553Z,72.50
2018-03-25T01:07:56.213Z,71.70
2018-03-25T01:10:23.885Z,72.20
2018-03-25T01:12:51.556Z,72.40
2018-03-25T01:15:19.973Z,72.10
2018-03-25T01:17:47.599Z,72.30
2018-03-25T01:20:15.261Z,72.30
2018-03-25T01:22:42.876Z,72.20
2018-03-25T01:25:10.537Z,71.90
2018-03-25T01:27:38.155Z,72.40
2018-03-25T01:30:05.939Z,70.80
2018-03-25T01:32:33.639Z,71.70
2018-03-25T01:35:02.045Z,72.50
2018-03-25T01:37:30.456Z,72.30
2018-03-25T01:39:58.072Z,72.50
2018-03-25T01:42:25.720Z,71.10
2018-03-25T01:44:54.103Z,71.00
2018-03-25T01:47:21.776Z,71.10
2018-03-25T01:49:49.412Z,71.00
2018-03-25T01:52:17.033Z,71.40
2018-03-25T01:54:44.725Z,70.00
2018-03-25T01:57:12.341Z,70.80
2018-03-25T01:59:39.997Z,70.70
2018-03-25T02:02:07.653Z,70.30
2018-03-25T02:04:35.305Z,70.80
2018-03-25T02:07:02.926Z,70.30
2018-03-25T02:09:30.761Z,69.80
2018-03-25T02:11:58.372Z,70.90
2018-03-25T02:14:25.984Z,71.50
2018-03-25T02:16:53.632Z,70.80
2018-03-25T02:19:21.258Z,70.60
2018-03-25T02:21:49.673Z,71.50
2018-03-25T02:24:17.284Z,71.00
2018-03-25T02:26:44.941Z,72.10
2018-03-25T02:29:12.676Z,72.50
2018-03-25T02:31:40.345Z,71.50
2018-03-25T02:34:08.204Z,71.80
2018-03-25T02:36:35.866Z,72.00
2018-03-25T02:39:03.489Z,71.50
2018-03-25T02:41:31.149Z,70.40
2018-03-25T02:43:58.806Z,71.10
2018-03-25T02:46:26.435Z,71.00
2018-03-25T02:48:54.090Z,70.70
2018-03-25T02:51:21.706Z,71.10
2018-03-25T02:53:49.353Z,70.00
2018-03-25T02:56:16.969Z,70.70
2018-03-25T02:58:44.624Z,69.50
2018-03-25T03:01:13.014Z,69.30
2018-03-25T03:03:40.673Z,69.30
2018-03-25T03:06:09.114Z,69.40
2018-03-25T03:08:36.798Z,69.50
2018-03-25T03:11:04.413Z,70.50
2018-03-25T03:13:32.067Z,70.00
2018-03-25T03:15:59.684Z,70.40
2018-03-25T03:18:27.336Z,69.90
2018-03-25T03:20:55.364Z,68.70
2018-03-25T03:23:22.976Z,69.50
2018-03-25T03:25:50.828Z,71.20
2018-03-25T03:28:18.480Z,71.80
2018-03-25T03:30:46.137Z,71.70
2018-03-25T03:33:13.987Z,71.50
2018-03-25T03:35:41.601Z,72.70
2018-03-25T03:38:11.312Z,72.40
2018-03-25T03:40:38.928Z,71.50
2018-03-25T03:43:06.584Z,72.10
2018-03-25T03:45:34.198Z,71.20
2018-03-25T03:48:02.571Z,72.60
2018-03-25T03:50:31.005Z,72.60
2018-03-25T03:52:59.070Z,72.20
2018-03-25T03:55:26.729Z,73.20
2018-03-25T03:57:54.337Z,71.30
2018-03-25T04:00:21.997Z,73.30
2018-03-25T04:02:50.376Z,72.10
2018-03-25T04:05:18.806Z,71.60
2018-03-25T04:07:46.429Z,72.00
2018-03-25T04:10:14.104Z,72.60
2018-03-25T04:12:41.762Z,72.90
2018-03-25T04:15:09.465Z,72.50
2018-03-25T04:17:37.120Z,73.00
2018-03-25T04:20:04.769Z,71.80
2018-03-25T04:22:32.437Z,71.50
2018-03-25T04:25:00.054Z,72.00
2018-03-25T04:27:27.705Z,73.30
2018-03-25T04:29:56.113Z,73.60
2018-03-25T04:32:23.780Z,73.90
2018-03-25T04:34:51.401Z,72.30
2018-03-25T04:37:19.051Z,73.00
2018-03-25T04:39:47.437Z,72.90
2018-03-25T04:42:15.859Z,73.40
2018-03-25T04:44:43.712Z,74.10
2018-03-25T04:47:11.671Z,73.40
2018-03-25T04:49:39.332Z,73.70
2018-03-25T04:52:06.978Z,72.90
2018-03-25T04:54:34.902Z,73.40
2018-03-25T04:57:02.545Z,73.20
2018-03-25T04:59:30.430Z,73.20
2018-03-25T05:01:58.089Z,73.40
2018-03-25T05:04:25.727Z,74.00
2018-03-25T05:06:53.988Z,72.70
2018-03-25T05:09:21.870Z,73.80
2018-03-25T05:11:49.529Z,74.10
2018-03-25T05:14:17.205Z,73.60
2018-03-25T05:16:46.333Z,74.40
2018-03-25T05:19:14.771Z,74.00
2018-03-25T05:21:42.429Z,74.30
2018-03-25T05:24:10.046Z,73.60
2018-03-25T05:26:37.793Z,73.30
2018-03-25T05:29:05.416Z,73.10
2018-03-25T05:31:33.185Z,73.10
2018-03-25T05:34:00.799Z,73.00
2018-03-25T05:36:28.454Z,73.10
2018-03-25T05:38:56.077Z,72.30
2018-03-25T05:41:25.245Z,73.00
2018-03-25T05:43:52.895Z,72.70
2018-03-25T05:46:20.544Z,73.50
2018-03-25T05:48:48.199Z,73.70
2018-03-25T05:51:15.841Z,74.10
2018-03-25T05:53:43.483Z,74.10
2018-03-25T05:56:11.793Z,73.10
2018-03-25T05:58:39.404Z,74.30
2018-03-25T06:01:07.257Z,72.90
2018-03-25T06:03:34.913Z,74.10
2018-03-25T06:06:03.260Z,74.00
2018-03-25T06:08:30.885Z,73.50
2018-03-25T06:10:59.925Z,73.50
2018-03-25T06:13:27.694Z,73.70
2018-03-25T06:15:55.977Z,72.40
2018-03-25T06:18:23.612Z,71.50
2018-03-25T06:20:51.236Z,72.30
2018-03-25T06:23:19.684Z,73.00
2018-03-25T06:25:47.308Z,73.40
2018-03-25T06:28:14.978Z,72.50
2018-03-25T06:30:42.593Z,71.70
2018-03-25T06:33:11.004Z,72.40
2018-03-25T06:35:38.622Z,72.60
2018-03-25T06:38:07.309Z,72.50
2018-03-25T06:40:37.081Z,72.30
2018-03-25T06:43:06.071Z,73.00
2018-03-25T06:45:36.596Z,72.00
2018-03-25T06:48:04.810Z,72.20
2018-03-25T06:50:32.501Z,71.60
2018-03-25T06:53:00.748Z,72.20
2018-03-25T06:55:34.483Z,70.60
2018-03-25T06:58:04.552Z,71.30
2018-03-25T07:00:33.232Z,70.90
2018-03-25T07:03:00.849Z,70.60
2018-03-25T07:05:30.637Z,71.40
2018-03-25T07:07:59.107Z,72.30
2018-03-25T07:10:26.761Z,71.80
2018-03-25T07:12:55.173Z,70.60
2018-03-25T07:15:22.917Z,70.60
2018-03-25T07:17:50.599Z,69.70
2018-03-25T07:20:19.122Z,69.80
2018-03-25T07:22:48.198Z,69.70
2018-03-25T07:25:16.076Z,68.80
2018-03-25T07:27:43.745Z,69.60
2018-03-25T07:30:11.408Z,66.90
2018-03-25T07:32:39.312Z,68.10
2018-03-25T07:35:08.853Z,68.10
2018-03-25T07:37:36.644Z,67.40
2018-03-25T07:40:05.097Z,66.00
2018-03-25T07:42:34.376Z,65.70
2018-03-25T07:45:04.808Z,65.00
2018-03-25T07:47:33.206Z,64.70
2018-03-25T07:50:02.537Z,65.80
2018-03-25T07:52:31.204Z,65.80
2018-03-25T07:54:59.045Z,66.10
2018-03-25T07:57:29.797Z,64.50
2018-03-25T07:59:57.643Z,64.20
2018-03-25T08:02:25.793Z,64.20
2018-03-25T08:04:54.239Z,63.50
2018-03-25T08:07:21.893Z,60.10
2018-03-25T08:09:49.569Z,62.30
2018-03-25T08:12:17.948Z,62.10
2018-03-25T08:14:46.369Z,61.70
2018-03-25T08:17:14.140Z,61.60
2018-03-25T08:19:41.809Z,61.00
2018-03-25T08:22:09.470Z,59.40
2018-03-25T08:24:40.335Z,60.60
2018-03-25T08:27:08.187Z,56.20
2018-03-25T08:29:36.159Z,56.70
2018-03-25T08:32:03.847Z,56.40
2018-03-25T08:34:32.203Z,55.00
2018-03-25T08:37:00.816Z,55.20
2018-03-25T08:39:28.666Z,55.10
2018-03-25T08:41:56.983Z,54.50
2018-03-25T08:44:26.914Z,53.20
2018-03-25T08:46:55.109Z,52.90
2018-03-25T08:49:24.386Z,53.90
2018-03-25T08:51:56.614Z,51.40
2018-03-25T08:54:27.324Z,51.40
2018-03-25T08:56:54.985Z,51.60
2018-03-25T08:59:22.631Z,49.00
2018-03-25T09:01:55.029Z,48.50
2018-03-25T09:04:23.382Z,48.80
2018-03-25T09:06:52.631Z,48.70
2018-03-25T09:09:22.284Z,46.60
2018-03-25T09:11:50.721Z,45.20
2018-03-25T09:14:18.790Z,45.00
2018-03-25T09:16:48.436Z,46.40
2018-03-25T09:19:19.477Z,44.50
2018-03-25T09:21:48.531Z,45.80
2018-03-25T09:24:17.166Z,44.60
2018-03-25T09:26:45.605Z,43.90
2018-03-25T09:29:14.177Z,43.20
2018-03-25T09:31:42.651Z,43.10
2018-03-25T09:34:10.780Z,41.70
2018-03-25T09:36:38.797Z,40.00
2018-03-25T09:39:07.432Z,39.70
2018-03-25T09:41:36.134Z,39.60
2018-03-25T09:44:03.845Z,37.80
2018-03-25T09:46:31.496Z,38.00
2018-03-25T09:49:00.017Z,37.00
2018-03-25T09:51:29.673Z,36.30
2018-03-25T09:53:58.612Z,36.70
2018-03-25T09:56:27.071Z,36.50
2018-03-25T09:58:54.745Z,36.70
2018-03-25T10:01:29.630Z,34.20
2018-03-25T10:03:58.846Z,34.90
2018-03-25T10:06:26.725Z,34.40
2018-03-25T10:08:55.301Z,33.10
2018-03-25T10:11:24.229Z,33.00
2018-03-25T10:13:53.817Z,35.30
2018-03-25T10:16:21.482Z,35.30
2018-03-25T10:18:49.102Z,32.60
2018-03-25T10:21:16.812Z,32.30
2018-03-25T10:23:44.473Z,32.10
2018-03-25T10:26:13.905Z,33.50
2018-03-25T10:28:41.569Z,33.40
2018-03-25T10:31:09.467Z,32.00
2018-03-25T10:33:37.084Z,35.80
2018-03-25T10:36:05.463Z,32.80
2018-03-25T10:38:33.121Z,34.30
2018-03-25T10:41:00.753Z,33.90
2018-03-25T10:43:28.471Z,32.00
2018-03-25T10:45:56.074Z,32.60
2018-03-25T10:48:24.557Z,32.10
2018-03-25T10:50:53.488Z,32.00
2018-03-25T10:53:21.165Z,30.10
2018-03-25T10:55:49.980Z,30.10
2018-03-25T10:58:17.688Z,28.80
2018-03-25T11:00:46.717Z,29.40
2018-03-25T11:03:14.672Z,29.20
2018-03-25T11:05:42.906Z,27.30
2018-03-25T11:08:12.264Z,29.20
2018-03-25T11:10:40.601Z,29.90
2018-03-25T11:13:08.489Z,28.70
2018-03-25T11:15:36.126Z,28.50
2018-03-25T11:18:03.791Z,29.00
2018-03-25T11:20:31.560Z,28.10
2018-03-25T11:22:59.232Z,29.60
2018-03-25T11:25:26.888Z,28.70
2018-03-25T11:27:54.568Z,28.70
2018-03-25T11:30:22.995Z,29.60
2018-03-25T11:32:51.580Z,29.60
2018-03-25T11:35:19.492Z,28.40
2018-03-25T11:37:47.163Z,28.70
2018-03-25T11:40:16.164Z,28.90
2018-03-25T11:42:44.120Z,29.30
2018-03-25T11:45:11.748Z,29.20
2018-03-25T11:47:39.421Z,29.70
2018-03-25T11:50:07.080Z,27.00
2018-03-25T11:52:34.744Z,28.10
2018-03-25T11:55:02.401Z,28.10
2018-03-25T11:57:30.081Z,27.80
2018-03-25T11:59:57.893Z,29.00
2018-03-25T12:02:25.592Z,28.10
2018-03-25T12:04:53.217Z,28.80
2018-03-25T12:07:20.910Z,29.10
2018-03-25T12:09:53.740Z,30.00
2018-03-25T12:12:26.484Z,28.80
2018-03-25T12:14:58.682Z,28.90
2018-03-25T12:17:33.250Z,28.70
2018-03-25T12:20:06.337Z,29.60
2018-03-25T12:22:34.293Z,28.10
2018-03-25T12:25:02.437Z,28.60
2018-03-25T12:27:30.248Z,26.80
2018-03-25T12:29:57.913Z,29.10
2018-03-25T12:32:25.609Z,28.40
2018-03-25T12:34:53.258Z,29.30
2018-03-25T12:37:21.672Z,29.60
2018-03-25T12:39:49.370Z,29.30
2018-03-25T12:42:17.048Z,28.40
2018-03-25T12:44:44.978Z,27.60
2018-03-25T12:47:12.666Z,29.40
2018-03-25T12:49:40.334Z,30.50
2018-03-25T12:52:07.944Z,28.50
2018-03-25T12:54:35.728Z,29.10
2018-03-25T12:57:03.352Z,27.40
2018-03-25T12:59:30.983Z,27.70
2018-03-25T13:01:58.643Z,29.30
2018-03-25T13:04:33.235Z,28.10
2018-03-25T13:07:01.237Z,28.60
2018-03-25T13:09:28.892Z,27.90
2018-03-25T13:11:56.518Z,29.70
2018-03-25T13:14:24.176Z,29.00
2018-03-25T13:16:51.909Z,29.00
2018-03-25T13:19:19.565Z,27.70
2018-03-25T13:21:47.220Z,26.50
2018-03-25T13:24:15.381Z,27.40
2018-03-25T13:26:43.800Z,28.10
2018-03-25T13:29:11.452Z,28.50
2018-03-25T13:34:29.409Z,28.80
2018-03-25T13:36:57.061Z,29.60
2018-03-25T13:39:24.989Z,30.60
2018-03-25T13:41:52.657Z,30.10
2018-03-25T13:44:20.525Z,30.70
2018-03-25T13:46:49.179Z,31.60
2018-03-25T13:49:16.844Z,30.80
2018-03-25T13:51:45.969Z,29.90
2018-03-25T13:54:14.421Z,31.40
2018-03-25T13:56:42.450Z,30.90
2018-03-25T13:59:10.081Z,30.70
2018-03-25T14:01:38.499Z,30.60
2018-03-25T14:04:06.120Z,31.50
2018-03-25T14:06:34.545Z,31.90
2018-03-25T14:09:02.213Z,32.50
2018-03-25T14:11:29.893Z,35.00
2018-03-25T14:13:58.031Z,35.30
2018-03-25T14:16:25.713Z,36.20
2018-03-25T14:18:53.469Z,36.70
2018-03-25T14:21:21.112Z,36.80
2018-03-25T14:23:48.765Z,36.80
2018-03-25T14:26:16.379Z,36.20
2018-03-25T14:28:44.029Z,34.80
2018-03-25T14:31:12.417Z,36.00
2018-03-25T14:33:40.279Z,36.00
2018-03-25T14:36:07.945Z,35.60
2018-03-25T14:38:36.365Z,36.20
2018-03-25T14:41:03.973Z,36.30
2018-03-25T14:43:31.633Z,37.80
2018-03-25T14:45:59.258Z,36.20
2018-03-25T14:48:26.908Z,35.30
2018-03-25T14:50:54.522Z,37.40
2018-03-25T14:53:24.167Z,36.90
2018-03-25T14:55:56.797Z,37.10
2018-03-25T14:58:28.227Z,36.40
2018-03-25T15:00:57.604Z,36.30
2018-03-25T15:03:28.261Z,36.70
2018-03-25T15:05:56.033Z,36.50
2018-03-25T15:08:23.692Z,36.40
2018-03-25T15:10:52.143Z,35.90
2018-03-25T15:13:19.760Z,36.60
2018-03-25T15:15:48.170Z,37.10
2018-03-25T15:18:15.829Z,36.00
2018-03-25T15:20:43.482Z,37.30
2018-03-25T15:23:11.094Z,36.80
2018-03-25T15:25:42.958Z,37.10
2018-03-25T15:28:12.420Z,37.40
2018-03-25T15:30:40.082Z,37.20
2018-03-25T15:33:07.969Z,37.80
2018-03-25T15:35:35.621Z,35.80
2018-03-25T15:38:03.783Z,36.50
2018-03-25T15:40:31.646Z,38.00
2018-03-25T15:42:59.862Z,36.80
2018-03-25T15:45:27.477Z,38.90
2018-03-25T15:47:55.131Z,38.30
2018-03-25T15:50:22.755Z,38.20
2018-03-25T15:52:50.413Z,39.50
2018-03-25T15:55:18.842Z,39.70
2018-03-25T15:57:46.495Z,38.40
2018-03-25T16:00:14.113Z,40.60
2018-03-25T16:02:42.038Z,41.10
2018-03-25T16:05:09.652Z,40.20
2018-03-25T16:07:37.309Z,41.00
2018-03-25T16:10:05.021Z,39.60
2018-03-25T16:12:32.786Z,41.20
2018-03-25T16:15:01.135Z,41.60
2018-03-25T16:17:28.745Z,41.40
2018-03-25T16:19:56.395Z,41.40
2018-03-25T16:22:27.197Z,42.10
2018-03-25T16:24:55.687Z,40.50
2018-03-25T16:27:24.753Z,41.40
2018-03-25T16:29:52.385Z,40.80
2018-03-25T16:32:20.804Z,41.80
2018-03-25T16:34:48.417Z,42.30
2018-03-25T16:37:17.919Z,43.10
2018-03-25T16:39:47.545Z,44.00
2018-03-25T16:42:15.169Z,42.40
2018-03-25T16:44:42.821Z,43.80
2018-03-25T16:47:10.429Z,43.90
2018-03-25T16:49:38.102Z,44.00
2018-03-25T16:52:05.717Z,43.40
2018-03-25T16:54:33.384Z,43.30
2018-03-25T16:57:01.805Z,43.70
2018-03-25T16:59:33.708Z,43.30
2018-03-25T17:02:02.085Z,44.40
2018-03-25T17:04:29.745Z,44.60
2018-03-25T17:06:58.807Z,44.80
2018-03-25T17:09:26.497Z,45.20
2018-03-25T17:11:54.942Z,46.90
2018-03-25T17:14:22.565Z,45.40
2018-03-25T17:16:50.412Z,45.40
2018-03-25T17:19:18.074Z,46.10
2018-03-25T17:21:48.140Z,45.40
2018-03-25T17:24:15.826Z,44.80
2018-03-25T17:26:43.933Z,46.50
2018-03-25T17:29:13.204Z,46.80
2018-03-25T17:31:42.028Z,46.40
2018-03-25T17:34:09.723Z,46.80
2018-03-25T17:36:39.231Z,46.30
2018-03-25T17:39:08.025Z,47.80
2018-03-25T17:41:35.681Z,48.20
2018-03-25T17:44:03.309Z,46.10
2018-03-25T17:46:30.962Z,49.00
2018-03-25T17:48:59.332Z,49.70
2018-03-25T17:51:27.588Z,49.60
2018-03-25T17:53:55.825Z,49.90
2018-03-25T17:56:24.974Z,49.70
2018-03-25T17:58:54.349Z,48.80
2018-03-25T18:01:23.257Z,49.40
2018-03-25T18:03:53.714Z,49.40
2018-03-25T18:06:23.565Z,49.60
2018-03-25T18:08:51.649Z,49.90
2018-03-25T18:11:20.294Z,49.80
2018-03-25T18:13:48.558Z,50.40
2018-03-25T18:16:16.876Z,49.50
2018-03-25T18:18:45.774Z,48.40
2018-03-25T18:21:13.841Z,49.20
2018-03-25T18:23:41.891Z,50.80
2018-03-25T18:26:10.262Z,50.10
2018-03-25T18:28:39.123Z,49.10
2018-03-25T18:31:07.629Z,49.70
2018-03-25T18:33:35.716Z,50.60
2018-03-25T18:36:05.362Z,50.00
2018-03-25T18:38:33.500Z,50.10
2018-03-25T18:41:01.853Z,49.30
2018-03-25T18:43:29.504Z,50.90
2018-03-25T18:45:57.149Z,51.00
2018-03-25T18:48:25.128Z,50.40
2018-03-25T18:50:54.648Z,51.10
2018-03-25T18:53:22.716Z,51.40
2018-03-25T18:55:50.381Z,51.70
2018-03-25T18:58:18.059Z,52.90
2018-03-25T19:00:45.989Z,52.40
2018-03-25T19:03:13.594Z,52.90
2018-03-25T19:05:41.249Z,53.60
2018-03-25T19:08:09.089Z,54.70
2018-03-25T19:10:37.680Z,54.60
2018-03-25T19:13:06.107Z,55.30
2018-03-25T19:15:34.424Z,54.10
2018-03-25T19:18:02.110Z,53.30
2018-03-25T19:20:29.925Z,55.20
2018-03-25T19:22:59.516Z,54.40
2018-03-25T19:25:27.233Z,55.50
2018-03-25T19:27:55.057Z,55.80
2018-03-25T19:30:22.844Z,55.80
2018-03-25T19:32:50.457Z,56.40
2018-03-25T19:35:18.076Z,56.70
2018-03-25T19:37:45.734Z,57.10
2018-03-25T19:40:13.400Z,57.20
2018-03-25T19:42:41.061Z,57.90
2018-03-25T19:45:08.694Z,56.80
2018-03-25T19:47:36.606Z,58.80
2018-03-25T19:50:05.367Z,59.60
2018-03-25T19:52:33.065Z,60.30
2018-03-25T19:55:01.398Z,59.60
2018-03-25T19:57:29.004Z,61.20
2018-03-25T19:59:57.383Z,60.90
2018-03-25T20:02:25.811Z,61.00
2018-03-25T20:04:53.479Z,61.00
2018-03-25T20:07:21.097Z,61.00
2018-03-25T20:09:48.717Z,60.90
2018-03-25T20:12:16.484Z,61.70
2018-03-25T20:14:44.565Z,62.20
2018-03-25T20:17:12.408Z,61.00
2018-03-25T20:19:40.165Z,61.40
2018-03-25T20:22:07.821Z,62.20
2018-03-25T20:24:35.481Z,63.80
2018-03-25T20:27:03.449Z,64.20
2018-03-25T20:29:31.067Z,63.60
2018-03-25T20:31:58.732Z,64.00
2018-03-25T20:34:26.387Z,64.60
2018-03-25T20:36:54.009Z,65.80
2018-03-25T20:39:21.660Z,65.20
2018-03-25T20:41:49.309Z,66.60
2018-03-25T20:44:16.922Z,66.50
2018-03-25T20:46:45.341Z,66.40
2018-03-25T20:49:13.010Z,66.00
2018-03-25T20:51:40.774Z,67.30
2018-03-25T20:54:08.433Z,67.70
2018-03-25T20:56:36.102Z,67.90
2018-03-25T20:59:03.726Z,67.10
2018-03-25T21:01:31.376Z,68.80
2018-03-25T21:03:59.025Z,69.30
2018-03-25T21:06:26.637Z,68.60
2018-03-25T21:08:54.292Z,69.50
2018-03-25T21:11:22.676Z,70.90
2018-03-25T21:13:50.668Z,71.20
2018-03-25T21:16:19.089Z,72.30
2018-03-25T21:18:46.709Z,72.10
2018-03-25T21:21:14.629Z,72.10
2018-03-25T21:23:42.241Z,73.50
2018-03-25T21:26:09.889Z,73.90
2018-03-25T21:28:38.305Z,75.70
2018-03-25T21:31:06.032Z,74.70
2018-03-25T21:33:33.677Z,76.40
2018-03-25T21:36:01.294Z,77.90
2018-03-25T21:38:28.945Z,78.80
2018-03-25T21:40:56.557Z,80.30
2018-03-25T21:43:24.249Z,81.50
2018-03-25T21:45:52.173Z,82.50
2018-03-25T21:48:19.788Z,83.50
2018-03-25T21:50:47.442Z,86.30
2018-03-25T21:53:15.093Z,87.70
2018-03-25T21:55:42.744Z,88.90
2018-03-25T21:58:10.513Z,89.10
2018-03-25T22:00:38.132Z,90.70
2018-03-25T22:03:05.847Z,91.20
2018-03-25T22:05:33.448Z,91.90
2018-03-25T22:08:01.056Z,92.60
2018-03-25T22:10:29.285Z,93.10
2018-03-25T22:12:56.964Z,93.20
2018-03-25T22:15:24.721Z,94.60
2018-03-25T22:17:52.337Z,94.80
2018-03-25T22:20:20.007Z,95.70
2018-03-25T22:22:47.683Z,96.40
2018-03-25T22:25:15.325Z,96.80
2018-03-25T22:27:42.936Z,98.40
2018-03-25T22:30:11.356Z,99.20
2018-03-25T22:32:39.019Z,99.40
2018-03-25T22:35:06.668Z,99.90
2018-03-25T22:37:34.280Z,99.80
2018-03-25T22:40:01.945Z,99.90
2018-03-25T22:42:29.568Z,99.70
2018-03-25T22:44:57.337Z,99.90
2018-03-25T22:47:24.996Z,99.90
2018-03-25T22:49:52.652Z,99.90
2018-03-25T22:52:20.304Z,99.90
2018-03-25T22:54:47.926Z,99.90
2018-03-25T22:57:15.593Z,99.90
2018-03-25T22:59:43.272Z,99.90
2018-03-25T23:02:11.105Z,99.90
2018-03-25T23:04:39.045Z,99.90
2018-03-25T23:07:06.698Z,99.90
2018-03-25T23:09:34.319Z,99.90
2018-03-25T23:12:01.966Z,99.90
2018-03-25T23:14:29.590Z,99.90
2018-03-25T23:16:57.264Z,99.90
2018-03-25T23:19:24.879Z,99.90
2018-03-25T23:21:52.534Z,99.90
2018-03-25T23:24:20.149Z,99.90
2018-03-25T23:26:47.769Z,99.90
2018-03-25T23:29:15.417Z,99.90
2018-03-25T23:31:43.029Z,99.90
2018-03-25T23:34:10.896Z,99.90
2018-03-25T23:36:38.510Z,99.90
2018-03-25T23:39:06.161Z,99.90
2018-03-25T23:41:33.826Z,99.90
2018-03-25T23:44:01.481Z,99.90
2018-03-25T23:46:29.173Z,99.90
2018-03-25T23:48:56.820Z,99.90
2018-03-25T23:51:24.478Z,99.90
2018-03-25T23:53:52.137Z,99.90
2018-03-25T23:56:19.792Z,99.90
2018-03-25T23:58:47.450Z,99.90
